NPV3605 EKVG-BGGH
Flight info
| Callsign | NPV3605 |
|---|---|
| Flight time | 2h 56m |
| Altitude | 36000 |
| Route | MY DCT ING DCT 65N030W/M076F380 65N040W DCT BAMAM |
| Aircraft | B737/M-SDE2E3FGHIRWXY/LB1 |
Departure
| Time | 2026-04-20 16:25 |
|---|---|
| Airport | Vágar Airport (EKVG) |
Arrival
| Time | 2026-04-20 19:22 |
|---|---|
| Airport | Nuuk International Airport (BGGH) |
| Time | Latitude | Longitude | Altitude | Speed | Heading |
|---|---|---|---|---|---|
| 2026-04-20 15:58 | 62.06710 | -7.28034 | 278 ft | 0 kts | 71° |
| 2026-04-20 16:20 | 62.06710 | -7.28031 | 278 ft | 0 kts | 76° |
| 2026-04-20 16:20 | 62.06705 | -7.28026 | 278 ft | 1 kts | 153° |
| 2026-04-20 16:21 | 62.06694 | -7.28038 | 278 ft | 2 kts | 212° |
| 2026-04-20 16:21 | 62.06682 | -7.28055 | 281 ft | 2 kts | 212° |
| 2026-04-20 16:21 | 62.06670 | -7.28070 | 278 ft | 2 kts | 212° |
| 2026-04-20 16:21 | 62.06668 | -7.28072 | 278 ft | 0 kts | 210° |
| 2026-04-20 16:22 | 62.06647 | -7.28090 | 279 ft | 8 kts | 188° |
| 2026-04-20 16:22 | 62.06572 | -7.28094 | 277 ft | 12 kts | 188° |
| 2026-04-20 16:22 | 62.06494 | -7.28156 | 281 ft | 12 kts | 212° |
| 2026-04-20 16:23 | 62.06503 | -7.28319 | 284 ft | 14 kts | 298° |
| 2026-04-20 16:23 | 62.06575 | -7.28587 | 276 ft | 27 kts | 297° |
| 2026-04-20 16:23 | 62.06672 | -7.28982 | 270 ft | 28 kts | 297° |
| 2026-04-20 16:23 | 62.06707 | -7.29192 | 268 ft | 8 kts | 278° |
| 2026-04-20 16:24 | 62.06730 | -7.29222 | 268 ft | 4 kts | 26° |
| 2026-04-20 16:24 | 62.06720 | -7.29166 | 268 ft | 5 kts | 132° |
| 2026-04-20 16:24 | 62.06706 | -7.29114 | 268 ft | 0 kts | 118° |
| 2026-04-20 16:25 | 62.06700 | -7.29091 | 268 ft | 12 kts | 118° |
| 2026-04-20 16:25 | 62.06526 | -7.28379 | 282 ft | 94 kts | 116° |
| 2026-04-20 16:25 | 62.06132 | -7.26749 | 480 ft | 138 kts | 118° |
| 2026-04-20 16:25 | 62.05675 | -7.25012 | 1431 ft | 131 kts | 112° |
| 2026-04-20 16:26 | 62.05247 | -7.23233 | 2109 ft | 139 kts | 113° |
| 2026-04-20 16:26 | 62.04798 | -7.21413 | 2719 ft | 136 kts | 113° |
| 2026-04-20 16:26 | 62.04450 | -7.19561 | 3226 ft | 135 kts | 101° |
| 2026-04-20 16:26 | 62.04301 | -7.17530 | 3608 ft | 148 kts | 93° |
| 2026-04-20 16:27 | 62.04231 | -7.15158 | 3861 ft | 173 kts | 92° |
| 2026-04-20 16:27 | 62.04167 | -7.12423 | 4100 ft | 195 kts | 91° |
| 2026-04-20 16:27 | 62.04022 | -7.09400 | 4276 ft | 216 kts | 99° |
| 2026-04-20 16:27 | 62.03584 | -7.06157 | 4460 ft | 239 kts | 112° |
| 2026-04-20 16:28 | 62.02741 | -7.03050 | 5039 ft | 249 kts | 124° |
| 2026-04-20 16:28 | 62.01561 | -7.00275 | 5853 ft | 253 kts | 137° |
| 2026-04-20 16:28 | 62.00119 | -6.98147 | 6564 ft | 260 kts | 149° |
| 2026-04-20 16:28 | 61.98418 | -6.96704 | 7341 ft | 267 kts | 162° |
| 2026-04-20 16:29 | 61.96552 | -6.96132 | 8063 ft | 275 kts | 175° |
| 2026-04-20 16:29 | 61.94613 | -6.96368 | 8831 ft | 284 kts | 185° |
| 2026-04-20 16:29 | 61.92679 | -6.97431 | 9648 ft | 292 kts | 198° |
| 2026-04-20 16:29 | 61.90843 | -6.99387 | 10256 ft | 299 kts | 211° |
| 2026-04-20 16:30 | 61.89205 | -7.02221 | 10908 ft | 308 kts | 224° |
| 2026-04-20 16:30 | 61.87870 | -7.05806 | 11723 ft | 312 kts | 238° |
| 2026-04-20 16:30 | 61.86915 | -7.09963 | 12495 ft | 316 kts | 252° |
| 2026-04-20 16:30 | 61.86424 | -7.14530 | 13201 ft | 322 kts | 269° |
| 2026-04-20 16:31 | 61.86708 | -7.19331 | 13426 ft | 339 kts | 294° |
| 2026-04-20 16:31 | 61.87751 | -7.23953 | 13689 ft | 359 kts | 302° |
| 2026-04-20 16:31 | 61.88989 | -7.28734 | 13865 ft | 381 kts | 303° |
| 2026-04-20 16:31 | 61.90322 | -7.33759 | 14082 ft | 400 kts | 302° |
| 2026-04-20 16:32 | 61.91696 | -7.38981 | 14567 ft | 409 kts | 302° |
| 2026-04-20 16:32 | 61.93072 | -7.44286 | 15297 ft | 411 kts | 302° |
| 2026-04-20 16:32 | 61.94443 | -7.49642 | 16000 ft | 414 kts | 302° |
| 2026-04-20 16:32 | 61.95815 | -7.55062 | 16628 ft | 419 kts | 303° |
| 2026-04-20 16:33 | 61.97192 | -7.60548 | 17286 ft | 423 kts | 303° |
| 2026-04-20 16:33 | 61.98578 | -7.66100 | 17942 ft | 427 kts | 303° |
| 2026-04-20 16:33 | 61.99972 | -7.71705 | 18587 ft | 430 kts | 303° |
| 2026-04-20 16:33 | 62.01372 | -7.77359 | 19139 ft | 433 kts | 303° |
| 2026-04-20 16:34 | 62.02755 | -7.82969 | 19828 ft | 433 kts | 303° |
| 2026-04-20 16:34 | 62.04157 | -7.88667 | 20336 ft | 437 kts | 303° |
| 2026-04-20 16:34 | 62.05576 | -7.94434 | 20784 ft | 442 kts | 303° |
| 2026-04-20 16:34 | 62.07010 | -8.00275 | 21261 ft | 446 kts | 303° |
| 2026-04-20 16:35 | 62.08453 | -8.06169 | 21750 ft | 450 kts | 303° |
| 2026-04-20 16:35 | 62.09902 | -8.12107 | 22232 ft | 453 kts | 303° |
| 2026-04-20 16:35 | 62.11363 | -8.18108 | 22672 ft | 457 kts | 303° |
| 2026-04-20 16:35 | 62.12833 | -8.24160 | 23127 ft | 461 kts | 303° |
| 2026-04-20 16:36 | 62.14309 | -8.30256 | 23571 ft | 464 kts | 303° |
| 2026-04-20 16:36 | 62.15796 | -8.36416 | 24023 ft | 467 kts | 303° |
| 2026-04-20 16:36 | 62.17286 | -8.42616 | 24423 ft | 470 kts | 303° |
| 2026-04-20 16:36 | 62.18781 | -8.48857 | 24806 ft | 472 kts | 303° |
| 2026-04-20 16:37 | 62.20276 | -8.55116 | 25200 ft | 473 kts | 303° |
| 2026-04-20 16:37 | 62.21775 | -8.61409 | 25590 ft | 475 kts | 303° |
| 2026-04-20 16:37 | 62.23277 | -8.67726 | 25936 ft | 477 kts | 303° |
| 2026-04-20 16:37 | 62.24783 | -8.74074 | 26253 ft | 479 kts | 303° |
| 2026-04-20 16:38 | 62.26283 | -8.80415 | 26798 ft | 474 kts | 302° |
| 2026-04-20 16:38 | 62.27758 | -8.86709 | 27411 ft | 470 kts | 302° |
| 2026-04-20 16:38 | 62.29221 | -8.92962 | 27875 ft | 469 kts | 302° |
| 2026-04-20 16:38 | 62.30690 | -8.99228 | 28277 ft | 470 kts | 302° |
| 2026-04-20 16:39 | 62.32154 | -9.05488 | 28764 ft | 468 kts | 303° |
| 2026-04-20 16:39 | 62.33609 | -9.11725 | 29320 ft | 465 kts | 303° |
| 2026-04-20 16:39 | 62.35053 | -9.17939 | 29890 ft | 463 kts | 303° |
| 2026-04-20 16:39 | 62.36470 | -9.24046 | 30378 ft | 462 kts | 303° |
| 2026-04-20 16:40 | 62.37899 | -9.30224 | 30831 ft | 460 kts | 303° |
| 2026-04-20 16:40 | 62.39322 | -9.36393 | 31255 ft | 459 kts | 303° |
| 2026-04-20 16:40 | 62.40739 | -9.42559 | 31661 ft | 458 kts | 303° |
| 2026-04-20 16:40 | 62.42150 | -9.48715 | 32023 ft | 458 kts | 303° |
| 2026-04-20 16:41 | 62.43559 | -9.54872 | 32371 ft | 457 kts | 303° |
| 2026-04-20 16:41 | 62.44961 | -9.61037 | 32716 ft | 457 kts | 303° |
| 2026-04-20 16:41 | 62.46363 | -9.67217 | 33053 ft | 457 kts | 303° |
| 2026-04-20 16:41 | 62.47758 | -9.73381 | 33417 ft | 456 kts | 303° |
| 2026-04-20 16:42 | 62.49149 | -9.79532 | 33746 ft | 455 kts | 303° |
| 2026-04-20 16:42 | 62.50534 | -9.85674 | 34133 ft | 453 kts | 303° |
| 2026-04-20 16:42 | 62.51911 | -9.91808 | 34474 ft | 452 kts | 303° |
| 2026-04-20 16:42 | 62.53283 | -9.97934 | 34731 ft | 453 kts | 303° |
| 2026-04-20 16:43 | 62.54658 | -10.04082 | 34962 ft | 453 kts | 303° |
| 2026-04-20 16:43 | 62.56026 | -10.10227 | 35187 ft | 453 kts | 302° |
| 2026-04-20 16:43 | 62.57395 | -10.16396 | 35410 ft | 454 kts | 302° |
| 2026-04-20 16:43 | 62.58759 | -10.22562 | 35645 ft | 454 kts | 302° |
| 2026-04-20 16:44 | 62.60121 | -10.28741 | 35864 ft | 454 kts | 302° |
| 2026-04-20 16:44 | 62.61483 | -10.34936 | 36082 ft | 454 kts | 302° |
| 2026-04-20 16:44 | 62.62841 | -10.41127 | 36288 ft | 454 kts | 302° |
| 2026-04-20 16:44 | 62.64199 | -10.47334 | 36469 ft | 455 kts | 301° |
| 2026-04-20 16:45 | 62.65554 | -10.53546 | 36667 ft | 455 kts | 301° |
| 2026-04-20 16:45 | 62.66909 | -10.59774 | 36905 ft | 455 kts | 301° |
| 2026-04-20 16:45 | 62.68256 | -10.65994 | 37128 ft | 454 kts | 301° |
| 2026-04-20 16:45 | 62.69604 | -10.72234 | 37306 ft | 455 kts | 301° |
| 2026-04-20 16:46 | 62.70948 | -10.78470 | 37501 ft | 455 kts | 301° |
| 2026-04-20 16:46 | 62.72290 | -10.84714 | 37735 ft | 454 kts | 300° |
| 2026-04-20 16:46 | 62.73602 | -10.90843 | 38023 ft | 451 kts | 300° |
| 2026-04-20 16:46 | 62.74928 | -10.97046 | 38168 ft | 452 kts | 300° |
| 2026-04-20 16:47 | 62.76257 | -11.03285 | 38275 ft | 454 kts | 300° |
| 2026-04-20 16:47 | 62.77589 | -11.09547 | 38461 ft | 454 kts | 300° |
| 2026-04-20 16:47 | 62.78912 | -11.15796 | 38705 ft | 453 kts | 300° |
| 2026-04-20 16:47 | 62.80230 | -11.22045 | 38900 ft | 453 kts | 300° |
| 2026-04-20 16:48 | 62.81541 | -11.28286 | 39112 ft | 451 kts | 300° |
| 2026-04-20 16:48 | 62.82845 | -11.34509 | 39334 ft | 449 kts | 299° |
| 2026-04-20 16:48 | 62.85451 | -11.46979 | 39501 ft | 452 kts | 299° |
| 2026-04-20 16:49 | 62.86754 | -11.53239 | 39631 ft | 451 kts | 299° |
| 2026-04-20 16:49 | 62.88051 | -11.59494 | 39776 ft | 451 kts | 299° |
| 2026-04-20 16:49 | 62.89345 | -11.65758 | 39894 ft | 451 kts | 299° |
| 2026-04-20 16:49 | 62.90638 | -11.72030 | 39981 ft | 451 kts | 298° |
| 2026-04-20 16:50 | 62.91928 | -11.78309 | 40085 ft | 452 kts | 298° |
| 2026-04-20 16:50 | 62.93217 | -11.84599 | 40202 ft | 451 kts | 298° |
| 2026-04-20 16:50 | 62.95773 | -11.97132 | 40551 ft | 447 kts | 298° |
| 2026-04-20 16:51 | 62.97878 | -12.07538 | 40615 ft | 450 kts | 298° |
| 2026-04-20 16:51 | 63.00833 | -12.22196 | 40643 ft | 452 kts | 298° |
| 2026-04-20 16:52 | 63.03368 | -12.34855 | 40650 ft | 452 kts | 297° |
| 2026-04-20 16:52 | 63.05485 | -12.45498 | 40654 ft | 453 kts | 297° |
| 2026-04-20 16:53 | 63.08004 | -12.58226 | 40653 ft | 453 kts | 297° |
| 2026-04-20 16:53 | 63.10508 | -12.70965 | 40651 ft | 452 kts | 297° |
| 2026-04-20 16:54 | 63.13001 | -12.83728 | 40650 ft | 452 kts | 297° |
| 2026-04-20 16:54 | 63.15465 | -12.96401 | 40626 ft | 451 kts | 296° |
| 2026-04-20 16:55 | 63.17923 | -13.09138 | 40641 ft | 449 kts | 296° |
| 2026-04-20 16:55 | 63.20360 | -13.21850 | 40651 ft | 448 kts | 296° |
| 2026-04-20 16:56 | 63.22778 | -13.34557 | 40652 ft | 446 kts | 296° |
| 2026-04-20 16:56 | 63.25175 | -13.47231 | 40657 ft | 445 kts | 296° |
| 2026-04-20 16:57 | 63.27558 | -13.59892 | 40659 ft | 444 kts | 296° |
| 2026-04-20 16:57 | 63.29926 | -13.72561 | 40654 ft | 443 kts | 296° |
| 2026-04-20 16:58 | 63.32278 | -13.85225 | 40642 ft | 443 kts | 296° |
| 2026-04-20 16:58 | 63.34621 | -13.97910 | 40651 ft | 443 kts | 295° |
| 2026-04-20 16:59 | 63.36955 | -14.10640 | 40651 ft | 444 kts | 295° |
| 2026-04-20 16:59 | 63.39283 | -14.23434 | 40663 ft | 446 kts | 295° |
| 2026-04-20 17:00 | 63.42770 | -14.42717 | 40658 ft | 448 kts | 295° |
| 2026-04-20 17:01 | 63.45087 | -14.55640 | 40662 ft | 448 kts | 294° |
| 2026-04-20 17:01 | 63.47381 | -14.68602 | 40661 ft | 449 kts | 294° |
| 2026-04-20 17:02 | 63.49685 | -14.81609 | 40659 ft | 450 kts | 294° |
| 2026-04-20 17:02 | 63.51963 | -14.94557 | 40658 ft | 450 kts | 294° |
| 2026-04-20 17:03 | 63.54239 | -15.07602 | 40660 ft | 449 kts | 294° |
| 2026-04-20 17:03 | 63.56503 | -15.20666 | 40648 ft | 449 kts | 293° |
| 2026-04-20 17:04 | 63.58751 | -15.33719 | 40659 ft | 448 kts | 293° |
| 2026-04-20 17:04 | 63.60982 | -15.46777 | 40661 ft | 448 kts | 293° |
| 2026-04-20 17:05 | 63.63202 | -15.59860 | 40657 ft | 447 kts | 293° |
| 2026-04-20 17:05 | 63.65405 | -15.72924 | 40652 ft | 446 kts | 293° |
| 2026-04-20 17:06 | 63.67594 | -15.86008 | 40656 ft | 446 kts | 293° |
| 2026-04-20 17:06 | 63.69771 | -15.99104 | 40661 ft | 447 kts | 292° |
| 2026-04-20 17:07 | 63.71940 | -16.12256 | 40655 ft | 448 kts | 292° |
| 2026-04-20 17:07 | 63.74103 | -16.25458 | 40659 ft | 449 kts | 292° |
| 2026-04-20 17:08 | 63.76260 | -16.38724 | 40654 ft | 450 kts | 292° |
| 2026-04-20 17:08 | 63.78413 | -16.52026 | 40654 ft | 451 kts | 292° |
| 2026-04-20 17:09 | 63.80553 | -16.65382 | 40650 ft | 452 kts | 291° |
| 2026-04-20 17:09 | 63.82505 | -16.78923 | 40654 ft | 453 kts | 289° |
| 2026-04-20 17:10 | 63.84346 | -16.92481 | 40648 ft | 454 kts | 289° |
| 2026-04-20 17:10 | 63.86195 | -17.06138 | 40653 ft | 453 kts | 289° |
| 2026-04-20 17:11 | 63.88053 | -17.19791 | 40657 ft | 453 kts | 289° |
| 2026-04-20 17:11 | 63.89906 | -17.33456 | 40660 ft | 452 kts | 289° |
| 2026-04-20 17:12 | 63.91744 | -17.47104 | 40649 ft | 452 kts | 289° |
| 2026-04-20 17:12 | 63.93566 | -17.60755 | 40661 ft | 450 kts | 289° |
| 2026-04-20 17:13 | 63.95375 | -17.74395 | 40655 ft | 450 kts | 288° |
| 2026-04-20 17:13 | 63.97158 | -17.88047 | 40663 ft | 450 kts | 288° |
| 2026-04-20 17:14 | 63.98932 | -18.01696 | 40659 ft | 449 kts | 288° |
| 2026-04-20 17:14 | 64.00694 | -18.15348 | 40662 ft | 449 kts | 288° |
| 2026-04-20 17:15 | 64.02442 | -18.29007 | 40669 ft | 449 kts | 288° |
| 2026-04-20 17:15 | 64.04177 | -18.42689 | 40668 ft | 449 kts | 287° |
| 2026-04-20 17:16 | 64.05900 | -18.56387 | 40686 ft | 449 kts | 287° |
| 2026-04-20 17:16 | 64.07599 | -18.70018 | 40677 ft | 449 kts | 287° |
| 2026-04-20 17:17 | 64.09296 | -18.83752 | 40685 ft | 449 kts | 287° |
| 2026-04-20 17:17 | 64.10975 | -18.97502 | 40683 ft | 448 kts | 287° |
| 2026-04-20 17:18 | 64.12638 | -19.11247 | 40690 ft | 448 kts | 287° |
| 2026-04-20 17:18 | 64.14294 | -19.25003 | 40692 ft | 448 kts | 287° |
| 2026-04-20 17:19 | 64.15935 | -19.38775 | 40676 ft | 448 kts | 286° |
| 2026-04-20 17:19 | 64.17563 | -19.52545 | 40683 ft | 448 kts | 286° |
| 2026-04-20 17:20 | 64.19178 | -19.66345 | 40673 ft | 448 kts | 286° |
| 2026-04-20 17:20 | 64.20779 | -19.80155 | 40673 ft | 448 kts | 285° |
| 2026-04-20 17:21 | 64.22366 | -19.93992 | 40668 ft | 448 kts | 285° |
| 2026-04-20 17:21 | 64.23943 | -20.07854 | 40655 ft | 448 kts | 285° |
| 2026-04-20 17:22 | 64.25505 | -20.21726 | 40664 ft | 448 kts | 285° |
| 2026-04-20 17:22 | 64.27057 | -20.35599 | 40654 ft | 448 kts | 284° |
| 2026-04-20 17:23 | 64.28580 | -20.49389 | 40661 ft | 447 kts | 284° |
| 2026-04-20 17:23 | 64.30098 | -20.63270 | 40661 ft | 447 kts | 284° |
| 2026-04-20 17:24 | 64.31603 | -20.77165 | 40667 ft | 447 kts | 284° |
| 2026-04-20 17:24 | 64.33095 | -20.91081 | 40664 ft | 447 kts | 284° |
| 2026-04-20 17:25 | 64.34578 | -21.05009 | 40654 ft | 448 kts | 284° |
| 2026-04-20 17:25 | 64.36046 | -21.18970 | 40655 ft | 447 kts | 283° |
| 2026-04-20 17:26 | 64.37500 | -21.32908 | 40652 ft | 446 kts | 283° |
| 2026-04-20 17:26 | 64.38937 | -21.46875 | 40657 ft | 446 kts | 283° |
| 2026-04-20 17:27 | 64.40362 | -21.60838 | 40658 ft | 446 kts | 283° |
| 2026-04-20 17:27 | 64.41768 | -21.74816 | 40663 ft | 446 kts | 283° |
| 2026-04-20 17:28 | 64.43166 | -21.88788 | 40661 ft | 445 kts | 283° |
| 2026-04-20 17:28 | 64.44550 | -22.02769 | 40659 ft | 446 kts | 282° |
| 2026-04-20 17:29 | 64.45911 | -22.16663 | 40662 ft | 445 kts | 282° |
| 2026-04-20 17:29 | 64.47264 | -22.30679 | 40667 ft | 446 kts | 282° |
| 2026-04-20 17:30 | 64.48605 | -22.44722 | 40670 ft | 446 kts | 282° |
| 2026-04-20 17:30 | 64.49939 | -22.58795 | 40667 ft | 447 kts | 282° |
| 2026-04-20 17:31 | 64.51262 | -22.72911 | 40680 ft | 447 kts | 281° |
| 2026-04-20 17:31 | 64.52574 | -22.87050 | 40669 ft | 448 kts | 281° |
| 2026-04-20 17:32 | 64.53865 | -23.01179 | 40666 ft | 447 kts | 281° |
| 2026-04-20 17:32 | 64.55144 | -23.15310 | 40671 ft | 447 kts | 281° |
| 2026-04-20 17:33 | 64.56404 | -23.29371 | 40673 ft | 447 kts | 281° |
| 2026-04-20 17:33 | 64.57655 | -23.43542 | 40670 ft | 447 kts | 281° |
| 2026-04-20 17:34 | 64.58895 | -23.57728 | 40669 ft | 447 kts | 280° |
| 2026-04-20 17:34 | 64.60121 | -23.71922 | 40674 ft | 447 kts | 280° |
| 2026-04-20 17:35 | 64.61334 | -23.86143 | 40671 ft | 447 kts | 280° |
| 2026-04-20 17:35 | 64.62534 | -24.00368 | 40666 ft | 448 kts | 280° |
| 2026-04-20 17:36 | 64.63719 | -24.14630 | 40663 ft | 448 kts | 279° |
| 2026-04-20 17:36 | 64.64891 | -24.28892 | 40668 ft | 448 kts | 279° |
| 2026-04-20 17:37 | 64.66052 | -24.43185 | 40665 ft | 448 kts | 279° |
| 2026-04-20 17:37 | 64.67197 | -24.57494 | 40667 ft | 449 kts | 279° |
| 2026-04-20 17:38 | 64.68329 | -24.71821 | 40649 ft | 448 kts | 279° |
| 2026-04-20 17:38 | 64.69451 | -24.86142 | 40658 ft | 448 kts | 279° |
| 2026-04-20 17:39 | 64.70557 | -25.00486 | 40654 ft | 448 kts | 279° |
| 2026-04-20 17:39 | 64.71647 | -25.14834 | 40651 ft | 448 kts | 278° |
| 2026-04-20 17:40 | 64.72715 | -25.29114 | 40651 ft | 449 kts | 278° |
| 2026-04-20 17:40 | 64.73777 | -25.43489 | 40653 ft | 449 kts | 278° |
| 2026-04-20 17:41 | 64.74829 | -25.57889 | 40651 ft | 448 kts | 278° |
| 2026-04-20 17:41 | 64.75862 | -25.72271 | 40651 ft | 448 kts | 278° |
| 2026-04-20 17:42 | 64.76883 | -25.86657 | 40650 ft | 447 kts | 278° |
| 2026-04-20 17:42 | 64.77889 | -26.01052 | 40644 ft | 447 kts | 277° |
| 2026-04-20 17:43 | 64.78878 | -26.15420 | 40646 ft | 446 kts | 277° |
| 2026-04-20 17:43 | 64.79853 | -26.29808 | 40639 ft | 446 kts | 277° |
| 2026-04-20 17:44 | 64.80654 | -26.41768 | 40646 ft | 446 kts | 277° |
| 2026-04-20 17:44 | 64.81602 | -26.56158 | 40638 ft | 446 kts | 277° |
| 2026-04-20 17:45 | 64.82540 | -26.70569 | 40647 ft | 446 kts | 277° |
| 2026-04-20 17:45 | 64.83461 | -26.84978 | 40639 ft | 445 kts | 277° |
| 2026-04-20 17:46 | 64.84371 | -26.99392 | 40640 ft | 446 kts | 277° |
| 2026-04-20 17:46 | 64.85260 | -27.13801 | 40632 ft | 446 kts | 276° |
| 2026-04-20 17:47 | 64.86136 | -27.28246 | 40632 ft | 447 kts | 276° |
| 2026-04-20 17:47 | 64.87007 | -27.42698 | 40631 ft | 446 kts | 276° |
| 2026-04-20 17:48 | 64.87858 | -27.57156 | 40625 ft | 446 kts | 276° |
| 2026-04-20 17:48 | 64.88695 | -27.71629 | 40629 ft | 446 kts | 276° |
| 2026-04-20 17:49 | 64.89523 | -27.86095 | 40626 ft | 446 kts | 276° |
| 2026-04-20 17:49 | 64.90324 | -28.00572 | 40619 ft | 446 kts | 276° |
| 2026-04-20 17:50 | 64.91117 | -28.15085 | 40618 ft | 447 kts | 275° |
| 2026-04-20 17:50 | 64.91905 | -28.29643 | 40629 ft | 449 kts | 275° |
| 2026-04-20 17:51 | 64.92680 | -28.44277 | 40626 ft | 450 kts | 276° |
| 2026-04-20 17:51 | 64.93434 | -28.58874 | 40623 ft | 451 kts | 275° |
| 2026-04-20 17:52 | 64.94184 | -28.73587 | 40605 ft | 452 kts | 275° |
| 2026-04-20 17:52 | 64.94912 | -28.88319 | 40605 ft | 452 kts | 275° |
| 2026-04-20 17:53 | 64.95637 | -29.03074 | 40603 ft | 452 kts | 275° |
| 2026-04-20 17:53 | 64.96346 | -29.17824 | 40599 ft | 452 kts | 275° |
| 2026-04-20 17:54 | 64.97034 | -29.32578 | 40601 ft | 452 kts | 275° |
| 2026-04-20 17:54 | 64.97705 | -29.47349 | 40602 ft | 453 kts | 274° |
| 2026-04-20 17:55 | 64.98370 | -29.62134 | 40597 ft | 453 kts | 274° |
| 2026-04-20 17:55 | 64.99019 | -29.76947 | 40601 ft | 454 kts | 274° |
| 2026-04-20 17:56 | 64.99657 | -29.91787 | 40585 ft | 454 kts | 274° |
| 2026-04-20 17:56 | 65.00254 | -30.06643 | 40585 ft | 454 kts | 274° |
| 2026-04-20 17:57 | 65.00734 | -30.21522 | 40596 ft | 454 kts | 272° |
| 2026-04-20 17:57 | 65.01190 | -30.36433 | 40583 ft | 454 kts | 272° |
| 2026-04-20 17:58 | 65.01628 | -30.51340 | 40587 ft | 454 kts | 272° |
| 2026-04-20 17:58 | 65.02064 | -30.66248 | 40582 ft | 454 kts | 272° |
| 2026-04-20 17:59 | 65.02491 | -30.81154 | 40590 ft | 453 kts | 273° |
| 2026-04-20 17:59 | 65.02905 | -30.96028 | 40574 ft | 452 kts | 272° |
| 2026-04-20 18:00 | 65.03297 | -31.10829 | 40571 ft | 449 kts | 272° |
| 2026-04-20 18:00 | 65.03671 | -31.25548 | 40566 ft | 447 kts | 272° |
| 2026-04-20 18:01 | 65.04029 | -31.40116 | 40574 ft | 445 kts | 272° |
| 2026-04-20 18:01 | 65.04367 | -31.54747 | 40563 ft | 445 kts | 272° |
| 2026-04-20 18:02 | 65.04700 | -31.69370 | 40565 ft | 444 kts | 272° |
| 2026-04-20 18:02 | 65.05017 | -31.83970 | 40557 ft | 444 kts | 272° |
| 2026-04-20 18:03 | 65.05324 | -31.98587 | 40560 ft | 445 kts | 272° |
| 2026-04-20 18:03 | 65.05605 | -32.13273 | 40570 ft | 446 kts | 272° |
| 2026-04-20 18:04 | 65.05881 | -32.27978 | 40558 ft | 448 kts | 272° |
| 2026-04-20 18:04 | 65.06138 | -32.42762 | 40559 ft | 450 kts | 272° |
| 2026-04-20 18:05 | 65.06504 | -32.65004 | 40546 ft | 452 kts | 272° |
| 2026-04-20 18:05 | 65.06736 | -32.79897 | 40553 ft | 452 kts | 272° |
| 2026-04-20 18:06 | 65.06949 | -32.94802 | 40547 ft | 453 kts | 272° |
| 2026-04-20 18:06 | 65.07149 | -33.09714 | 40548 ft | 453 kts | 272° |
| 2026-04-20 18:07 | 65.07330 | -33.24623 | 40542 ft | 453 kts | 272° |
| 2026-04-20 18:07 | 65.07492 | -33.39537 | 40552 ft | 452 kts | 271° |
| 2026-04-20 18:08 | 65.07642 | -33.54424 | 40536 ft | 452 kts | 271° |
| 2026-04-20 18:08 | 65.07785 | -33.69311 | 40548 ft | 451 kts | 272° |
| 2026-04-20 18:09 | 65.07908 | -33.84208 | 40536 ft | 452 kts | 272° |
| 2026-04-20 18:09 | 65.08010 | -33.99082 | 40538 ft | 451 kts | 271° |
| 2026-04-20 18:10 | 65.08100 | -34.13873 | 40531 ft | 452 kts | 272° |
| 2026-04-20 18:10 | 65.08178 | -34.28783 | 40525 ft | 453 kts | 271° |
| 2026-04-20 18:11 | 65.08246 | -34.43728 | 40528 ft | 454 kts | 272° |
| 2026-04-20 18:11 | 65.08297 | -34.58701 | 40526 ft | 455 kts | 272° |
| 2026-04-20 18:12 | 65.08326 | -34.73710 | 40521 ft | 455 kts | 272° |
| 2026-04-20 18:12 | 65.08345 | -34.88712 | 40524 ft | 455 kts | 271° |
| 2026-04-20 18:13 | 65.08351 | -35.03716 | 40523 ft | 455 kts | 271° |
| 2026-04-20 18:13 | 65.08343 | -35.18730 | 40505 ft | 455 kts | 272° |
| 2026-04-20 18:14 | 65.08319 | -35.33728 | 40510 ft | 456 kts | 271° |
| 2026-04-20 18:14 | 65.08272 | -35.48775 | 40520 ft | 457 kts | 271° |
| 2026-04-20 18:15 | 65.08215 | -35.63855 | 40518 ft | 457 kts | 271° |
| 2026-04-20 18:15 | 65.08140 | -35.78918 | 40512 ft | 457 kts | 271° |
| 2026-04-20 18:16 | 65.08052 | -35.93995 | 40515 ft | 457 kts | 271° |
| 2026-04-20 18:16 | 65.07953 | -36.09070 | 40512 ft | 458 kts | 271° |
| 2026-04-20 18:17 | 65.07836 | -36.24150 | 40508 ft | 457 kts | 271° |
| 2026-04-20 18:17 | 65.07703 | -36.39233 | 40504 ft | 457 kts | 271° |
| 2026-04-20 18:18 | 65.07557 | -36.54292 | 40502 ft | 457 kts | 270° |
| 2026-04-20 18:18 | 65.07393 | -36.69342 | 40504 ft | 456 kts | 271° |
| 2026-04-20 18:19 | 65.07216 | -36.84344 | 40504 ft | 455 kts | 270° |
| 2026-04-20 18:19 | 65.07026 | -36.99332 | 40508 ft | 455 kts | 270° |
| 2026-04-20 18:20 | 65.06825 | -37.14182 | 40508 ft | 453 kts | 270° |
| 2026-04-20 18:20 | 65.06596 | -37.29093 | 40501 ft | 452 kts | 270° |
| 2026-04-20 18:21 | 65.06362 | -37.43960 | 40504 ft | 451 kts | 270° |
| 2026-04-20 18:21 | 65.06119 | -37.58796 | 40495 ft | 450 kts | 270° |
| 2026-04-20 18:22 | 65.05856 | -37.73609 | 40501 ft | 450 kts | 270° |
| 2026-04-20 18:22 | 65.05576 | -37.88405 | 40490 ft | 450 kts | 270° |
| 2026-04-20 18:23 | 65.05283 | -38.03192 | 40511 ft | 448 kts | 270° |
| 2026-04-20 18:23 | 65.04977 | -38.17890 | 40489 ft | 446 kts | 269° |
| 2026-04-20 18:24 | 65.04659 | -38.32511 | 40488 ft | 444 kts | 269° |
| 2026-04-20 18:24 | 65.04330 | -38.47097 | 40490 ft | 443 kts | 269° |
| 2026-04-20 18:25 | 65.03985 | -38.61640 | 40492 ft | 442 kts | 269° |
| 2026-04-20 18:25 | 65.03623 | -38.76156 | 40490 ft | 441 kts | 269° |
| 2026-04-20 18:26 | 65.03253 | -38.90629 | 40506 ft | 440 kts | 269° |
| 2026-04-20 18:26 | 65.02871 | -39.05094 | 40488 ft | 441 kts | 268° |
| 2026-04-20 18:27 | 65.02475 | -39.19581 | 40493 ft | 441 kts | 268° |
| 2026-04-20 18:27 | 65.02064 | -39.34057 | 40495 ft | 441 kts | 268° |
| 2026-04-20 18:28 | 65.01631 | -39.48536 | 40506 ft | 441 kts | 267° |
| 2026-04-20 18:28 | 65.01189 | -39.63015 | 40498 ft | 442 kts | 267° |
| 2026-04-20 18:29 | 65.00735 | -39.77522 | 40514 ft | 442 kts | 266° |
| 2026-04-20 18:29 | 65.00348 | -39.89579 | 40510 ft | 443 kts | 266° |
| 2026-04-20 18:30 | 64.99867 | -40.04087 | 40505 ft | 443 kts | 266° |
| 2026-04-20 18:30 | 64.99309 | -40.20969 | 40514 ft | 443 kts | 266° |
| 2026-04-20 18:31 | 64.98903 | -40.33119 | 40514 ft | 443 kts | 266° |
| 2026-04-20 18:31 | 64.98401 | -40.47617 | 40515 ft | 443 kts | 266° |
| 2026-04-20 18:32 | 64.97883 | -40.62109 | 40518 ft | 443 kts | 266° |
| 2026-04-20 18:32 | 64.97350 | -40.76625 | 40514 ft | 443 kts | 266° |
| 2026-04-20 18:33 | 64.96808 | -40.91117 | 40524 ft | 443 kts | 265° |
| 2026-04-20 18:33 | 64.96247 | -41.05590 | 40501 ft | 442 kts | 265° |
| 2026-04-20 18:34 | 64.95682 | -41.19938 | 40524 ft | 442 kts | 265° |
| 2026-04-20 18:34 | 64.95100 | -41.34369 | 40531 ft | 442 kts | 265° |
| 2026-04-20 18:35 | 64.94502 | -41.48787 | 40529 ft | 442 kts | 265° |
| 2026-04-20 18:35 | 64.93889 | -41.63206 | 40531 ft | 442 kts | 265° |
| 2026-04-20 18:36 | 64.93262 | -41.77598 | 40528 ft | 441 kts | 265° |
| 2026-04-20 18:36 | 64.92621 | -41.91995 | 40532 ft | 441 kts | 265° |
| 2026-04-20 18:37 | 64.91967 | -42.06368 | 40536 ft | 440 kts | 265° |
| 2026-04-20 18:37 | 64.91301 | -42.20696 | 40533 ft | 439 kts | 264° |
| 2026-04-20 18:38 | 64.90629 | -42.34970 | 40547 ft | 438 kts | 264° |
| 2026-04-20 18:38 | 64.89942 | -42.49175 | 40530 ft | 435 kts | 264° |
| 2026-04-20 18:39 | 64.89244 | -42.63292 | 40544 ft | 433 kts | 264° |
| 2026-04-20 18:39 | 64.88545 | -42.77253 | 40539 ft | 432 kts | 264° |
| 2026-04-20 18:40 | 64.87824 | -42.91274 | 40533 ft | 431 kts | 263° |
| 2026-04-20 18:40 | 64.87091 | -43.05257 | 40501 ft | 431 kts | 263° |
| 2026-04-20 18:41 | 64.86343 | -43.19216 | 40513 ft | 430 kts | 263° |
| 2026-04-20 18:41 | 64.85590 | -43.33164 | 40506 ft | 430 kts | 263° |
| 2026-04-20 18:42 | 64.84822 | -43.47117 | 40449 ft | 431 kts | 263° |
| 2026-04-20 18:42 | 64.84037 | -43.61081 | 40465 ft | 431 kts | 262° |
| 2026-04-20 18:43 | 64.83237 | -43.75037 | 40462 ft | 431 kts | 262° |
| 2026-04-20 18:43 | 64.82427 | -43.89012 | 40425 ft | 432 kts | 262° |
| 2026-04-20 18:44 | 64.81605 | -44.02976 | 40405 ft | 433 kts | 262° |
| 2026-04-20 18:44 | 64.80768 | -44.16935 | 40395 ft | 430 kts | 262° |
| 2026-04-20 18:45 | 64.79930 | -44.30734 | 40346 ft | 425 kts | 262° |
| 2026-04-20 18:45 | 64.79084 | -44.44347 | 40347 ft | 419 kts | 262° |
| 2026-04-20 18:46 | 64.78239 | -44.57763 | 40366 ft | 419 kts | 261° |
| 2026-04-20 18:46 | 64.77372 | -44.71351 | 40323 ft | 423 kts | 261° |
| 2026-04-20 18:47 | 64.76476 | -44.85162 | 40327 ft | 427 kts | 261° |
| 2026-04-20 18:47 | 64.75577 | -44.98867 | 40318 ft | 428 kts | 261° |
| 2026-04-20 18:48 | 64.74671 | -45.12429 | 40261 ft | 414 kts | 260° |
| 2026-04-20 18:48 | 64.73775 | -45.25660 | 40263 ft | 411 kts | 260° |
| 2026-04-20 18:49 | 64.72862 | -45.38919 | 40275 ft | 415 kts | 260° |
| 2026-04-20 18:49 | 64.71935 | -45.52324 | 40280 ft | 419 kts | 260° |
| 2026-04-20 18:50 | 64.70978 | -45.65801 | 40252 ft | 421 kts | 259° |
| 2026-04-20 18:50 | 64.70015 | -45.79314 | 40226 ft | 420 kts | 259° |
| 2026-04-20 18:51 | 64.69043 | -45.92709 | 40219 ft | 416 kts | 259° |
| 2026-04-20 18:51 | 64.68076 | -46.05949 | 40231 ft | 412 kts | 259° |
| 2026-04-20 18:52 | 64.67094 | -46.19056 | 40200 ft | 414 kts | 259° |
| 2026-04-20 18:52 | 64.66096 | -46.32351 | 40193 ft | 418 kts | 259° |
| 2026-04-20 18:53 | 64.65078 | -46.45777 | 40201 ft | 421 kts | 258° |
| 2026-04-20 18:53 | 64.64055 | -46.59161 | 40171 ft | 416 kts | 260° |
| 2026-04-20 18:54 | 64.63084 | -46.72348 | 40151 ft | 410 kts | 257° |
| 2026-04-20 18:54 | 64.62017 | -46.85355 | 40142 ft | 407 kts | 257° |
| 2026-04-20 18:55 | 64.60958 | -46.98337 | 40149 ft | 411 kts | 257° |
| 2026-04-20 18:55 | 64.59876 | -47.11514 | 40151 ft | 417 kts | 257° |
| 2026-04-20 18:56 | 64.58789 | -47.24789 | 40124 ft | 419 kts | 257° |
| 2026-04-20 18:56 | 64.57680 | -47.38148 | 40113 ft | 420 kts | 257° |
| 2026-04-20 18:57 | 64.56568 | -47.51403 | 40103 ft | 420 kts | 257° |
| 2026-04-20 18:57 | 64.55442 | -47.64708 | 40107 ft | 419 kts | 257° |
| 2026-04-20 18:58 | 64.54307 | -47.77948 | 40125 ft | 416 kts | 256° |
| 2026-04-20 18:58 | 64.53167 | -47.91104 | 40093 ft | 414 kts | 256° |
| 2026-04-20 18:59 | 64.52016 | -48.04192 | 40091 ft | 413 kts | 255° |
| 2026-04-20 18:59 | 64.50865 | -48.17223 | 40097 ft | 411 kts | 255° |
| 2026-04-20 19:00 | 64.49701 | -48.30197 | 40091 ft | 410 kts | 255° |
| 2026-04-20 19:00 | 64.48515 | -48.43223 | 39634 ft | 417 kts | 255° |
| 2026-04-20 19:01 | 64.47915 | -48.49803 | 39099 ft | 417 kts | 254° |
| 2026-04-20 19:01 | 64.47305 | -48.56364 | 38493 ft | 416 kts | 255° |
| 2026-04-20 19:01 | 64.46702 | -48.62904 | 37810 ft | 414 kts | 255° |
| 2026-04-20 19:01 | 64.46098 | -48.69409 | 37190 ft | 412 kts | 255° |
| 2026-04-20 19:02 | 64.45497 | -48.75888 | 36543 ft | 411 kts | 255° |
| 2026-04-20 19:02 | 64.44888 | -48.82358 | 35888 ft | 410 kts | 256° |
| 2026-04-20 19:02 | 64.44286 | -48.88739 | 35166 ft | 411 kts | 254° |
| 2026-04-20 19:02 | 64.43675 | -48.95193 | 34442 ft | 411 kts | 256° |
| 2026-04-20 19:03 | 64.43053 | -49.01671 | 33647 ft | 413 kts | 255° |
| 2026-04-20 19:03 | 64.42433 | -49.08183 | 32800 ft | 415 kts | 255° |
| 2026-04-20 19:03 | 64.41815 | -49.14709 | 31984 ft | 416 kts | 255° |
| 2026-04-20 19:03 | 64.41182 | -49.21251 | 31121 ft | 418 kts | 254° |
| 2026-04-20 19:04 | 64.40541 | -49.27830 | 30224 ft | 420 kts | 254° |
| 2026-04-20 19:04 | 64.39894 | -49.34450 | 29151 ft | 424 kts | 254° |
| 2026-04-20 19:04 | 64.39239 | -49.41115 | 28069 ft | 427 kts | 253° |
| 2026-04-20 19:04 | 64.38579 | -49.47820 | 26991 ft | 430 kts | 253° |
| 2026-04-20 19:05 | 64.37913 | -49.54543 | 26193 ft | 427 kts | 252° |
| 2026-04-20 19:05 | 64.37250 | -49.61215 | 25413 ft | 425 kts | 252° |
| 2026-04-20 19:05 | 64.36588 | -49.67841 | 24648 ft | 423 kts | 252° |
| 2026-04-20 19:05 | 64.35922 | -49.74460 | 23844 ft | 423 kts | 251° |
| 2026-04-20 19:06 | 64.35258 | -49.81043 | 23333 ft | 416 kts | 251° |
| 2026-04-20 19:06 | 64.34689 | -49.87625 | 22026 ft | 423 kts | 258° |
| 2026-04-20 19:06 | 64.34629 | -49.94430 | 20839 ft | 424 kts | 267° |
| 2026-04-20 19:06 | 64.34807 | -50.01176 | 19704 ft | 418 kts | 268° |
| 2026-04-20 19:07 | 64.35000 | -50.07801 | 18594 ft | 411 kts | 268° |
| 2026-04-20 19:07 | 64.35187 | -50.14331 | 17417 ft | 403 kts | 268° |
| 2026-04-20 19:07 | 64.35359 | -50.20741 | 16205 ft | 397 kts | 268° |
| 2026-04-20 19:07 | 64.35519 | -50.27057 | 15054 ft | 391 kts | 268° |
| 2026-04-20 19:08 | 64.35671 | -50.33269 | 13980 ft | 384 kts | 267° |
| 2026-04-20 19:08 | 64.35945 | -50.45374 | 11591 ft | 372 kts | 266° |
| 2026-04-20 19:08 | 64.36079 | -50.51295 | 10746 ft | 361 kts | 266° |
| 2026-04-20 19:09 | 64.36204 | -50.56785 | 10638 ft | 328 kts | 265° |
| 2026-04-20 19:09 | 64.36319 | -50.61853 | 10454 ft | 303 kts | 264° |
| 2026-04-20 19:09 | 64.36420 | -50.66463 | 10305 ft | 281 kts | 264° |
| 2026-04-20 19:09 | 64.36529 | -50.70791 | 10255 ft | 259 kts | 263° |
| 2026-04-20 19:10 | 64.36596 | -50.74915 | 10165 ft | 259 kts | 263° |
| 2026-04-20 19:10 | 64.36667 | -50.79080 | 10039 ft | 256 kts | 263° |
| 2026-04-20 19:10 | 64.36743 | -50.83132 | 9808 ft | 251 kts | 263° |
| 2026-04-20 19:10 | 64.36809 | -50.87140 | 9505 ft | 250 kts | 262° |
| 2026-04-20 19:11 | 64.36905 | -50.91108 | 9181 ft | 240 kts | 261° |
| 2026-04-20 19:11 | 64.36988 | -50.94869 | 8926 ft | 232 kts | 262° |
| 2026-04-20 19:11 | 64.37054 | -50.98584 | 8621 ft | 233 kts | 261° |
| 2026-04-20 19:11 | 64.37109 | -51.02314 | 8318 ft | 233 kts | 262° |
| 2026-04-20 19:12 | 64.37177 | -51.06028 | 8036 ft | 229 kts | 261° |
| 2026-04-20 19:12 | 64.37239 | -51.09614 | 7829 ft | 219 kts | 261° |
| 2026-04-20 19:12 | 64.37305 | -51.13105 | 7716 ft | 216 kts | 260° |
| 2026-04-20 19:12 | 64.37366 | -51.16486 | 7572 ft | 201 kts | 256° |
| 2026-04-20 19:13 | 64.37402 | -51.19663 | 7441 ft | 196 kts | 257° |
| 2026-04-20 19:13 | 64.37460 | -51.22756 | 7428 ft | 192 kts | 256° |
| 2026-04-20 19:13 | 64.37671 | -51.25932 | 7240 ft | 216 kts | 274° |
| 2026-04-20 19:13 | 64.38156 | -51.29243 | 6948 ft | 223 kts | 274° |
| 2026-04-20 19:14 | 64.38644 | -51.32576 | 6631 ft | 212 kts | 266° |
| 2026-04-20 19:14 | 64.39070 | -51.35860 | 6313 ft | 215 kts | 270° |
| 2026-04-20 19:14 | 64.39531 | -51.39073 | 5666 ft | 198 kts | 277° |
| 2026-04-20 19:14 | 64.39963 | -51.41988 | 5199 ft | 200 kts | 271° |
| 2026-04-20 19:15 | 64.40396 | -51.45050 | 4815 ft | 193 kts | 269° |
| 2026-04-20 19:15 | 64.40684 | -51.48037 | 4317 ft | 183 kts | 249° |
| 2026-04-20 19:15 | 64.40214 | -51.50204 | 4094 ft | 132 kts | 198° |
| 2026-04-20 19:15 | 64.39426 | -51.51329 | 3991 ft | 139 kts | 203° |
| 2026-04-20 19:16 | 64.38606 | -51.52493 | 3886 ft | 138 kts | 196° |
| 2026-04-20 19:16 | 64.37740 | -51.53457 | 3758 ft | 138 kts | 195° |
| 2026-04-20 19:16 | 64.36875 | -51.54392 | 3646 ft | 137 kts | 193° |
| 2026-04-20 19:16 | 64.36000 | -51.55203 | 3535 ft | 135 kts | 191° |
| 2026-04-20 19:17 | 64.35136 | -51.55916 | 3481 ft | 134 kts | 190° |
| 2026-04-20 19:17 | 64.34246 | -51.56608 | 3309 ft | 138 kts | 190° |
| 2026-04-20 19:17 | 64.33334 | -51.57298 | 3122 ft | 138 kts | 189° |
| 2026-04-20 19:17 | 64.32430 | -51.57975 | 2942 ft | 138 kts | 190° |
| 2026-04-20 19:18 | 64.31511 | -51.58664 | 2754 ft | 140 kts | 190° |
| 2026-04-20 19:18 | 64.30578 | -51.59359 | 2557 ft | 142 kts | 191° |
| 2026-04-20 19:18 | 64.29650 | -51.60054 | 2358 ft | 135 kts | 190° |
| 2026-04-20 19:18 | 64.28820 | -51.60677 | 2223 ft | 121 kts | 189° |
| 2026-04-20 19:19 | 64.28011 | -51.61276 | 2021 ft | 121 kts | 190° |
| 2026-04-20 19:19 | 64.27201 | -51.61879 | 1852 ft | 125 kts | 191° |
| 2026-04-20 19:19 | 64.26370 | -51.62497 | 1673 ft | 126 kts | 191° |
| 2026-04-20 19:19 | 64.25501 | -51.63143 | 1487 ft | 135 kts | 191° |
| 2026-04-20 19:20 | 64.24612 | -51.63812 | 1310 ft | 134 kts | 192° |
| 2026-04-20 19:20 | 64.23714 | -51.64482 | 1107 ft | 136 kts | 192° |
| 2026-04-20 19:20 | 64.22818 | -51.65181 | 942 ft | 136 kts | 193° |
| 2026-04-20 19:20 | 64.21937 | -51.65819 | 722 ft | 126 kts | 193° |
| 2026-04-20 19:21 | 64.21153 | -51.66418 | 558 ft | 114 kts | 191° |
| 2026-04-20 19:21 | 64.20400 | -51.66985 | 408 ft | 112 kts | 192° |
| 2026-04-20 19:21 | 64.19654 | -51.67533 | 299 ft | 110 kts | 192° |
| 2026-04-20 19:21 | 64.19006 | -51.67993 | 283 ft | 70 kts | 201° |
| 2026-04-20 19:22 | 64.18843 | -51.68117 | 281 ft | 2 kts | 199° |
| 2026-04-20 19:22 | 64.18814 | -51.68140 | 284 ft | 12 kts | 199° |
| 2026-04-20 19:22 | 64.18715 | -51.68212 | 281 ft | 15 kts | 197° |
| 2026-04-20 19:22 | 64.18652 | -51.68163 | 281 ft | 9 kts | 111° |
| 2026-04-20 19:23 | 64.18633 | -51.68024 | 285 ft | 9 kts | 108° |
| 2026-04-20 19:23 | 64.18623 | -51.67952 | 280 ft | 2 kts | 108° |
| 2026-04-20 19:23 | 64.18619 | -51.67925 | 280 ft | 2 kts | 109° |
| 2026-04-20 19:23 | 64.18612 | -51.67905 | 280 ft | 2 kts | 137° |
| 2026-04-20 19:24 | 64.18601 | -51.67904 | 280 ft | 2 kts | 192° |
| 2026-04-20 19:24 | 64.18581 | -51.67923 | 280 ft | 5 kts | 202° |
| 2026-04-20 19:24 | 64.18543 | -51.67940 | 280 ft | 6 kts | 153° |
| 2026-04-20 19:24 | 64.18522 | -51.67849 | 280 ft | 4 kts | 107° |
| 2026-04-20 19:25 | 64.18520 | -51.67834 | 280 ft | 0 kts | 107° |